KLM20T LEIB-EHAM
Flight info
| Callsign | KLM20T |
|---|---|
| Flight time | N/A |
| Altitude | 36000 |
| Route | EPAMA N856 EBROX Z26 LATRO DCT OLOXO DCT OKABI DCT TOU DCT ADABI DCT BOKNO UN858 VANAD UN874 BAMES UT191 PODEM DCT BAZOS DCT LUMIL DCT BELOB UY873 DENUT |
| Aircraft | B738/M-SDE2E3FGHIRWXY/LB1 |
Departure
| Time | 2026-05-01 13:29 |
|---|---|
| Airport | Ibiza Airport (LEIB) |
Arrival
| Time | N/A |
|---|---|
| Airport | Amsterdam Airport Schiphol (EHAM) |
| Time | Latitude | Longitude | Altitude | Speed | Heading |
|---|---|---|---|---|---|
| 2026-05-01 12:59 | 38.87546 | 1.37211 | 7 ft | 0 kts | 332° |
| 2026-05-01 13:21 | 38.87568 | 1.37196 | 8 ft | 5 kts | 332° |
| 2026-05-01 13:21 | 38.87583 | 1.37157 | 7 ft | 6 kts | 259° |
| 2026-05-01 13:22 | 38.87563 | 1.37103 | 8 ft | 9 kts | 241° |
| 2026-05-01 13:22 | 38.87530 | 1.37025 | 7 ft | 10 kts | 242° |
| 2026-05-01 13:22 | 38.87498 | 1.36945 | 7 ft | 10 kts | 242° |
| 2026-05-01 13:22 | 38.87466 | 1.36869 | 7 ft | 10 kts | 242° |
| 2026-05-01 13:23 | 38.87430 | 1.36799 | 7 ft | 10 kts | 207° |
| 2026-05-01 13:23 | 38.87369 | 1.36820 | 9 ft | 9 kts | 153° |
| 2026-05-01 13:23 | 38.87307 | 1.36857 | 8 ft | 11 kts | 168° |
| 2026-05-01 13:23 | 38.87257 | 1.36796 | 8 ft | 11 kts | 243° |
| 2026-05-01 13:24 | 38.87211 | 1.36681 | 8 ft | 16 kts | 243° |
| 2026-05-01 13:24 | 38.87160 | 1.36556 | 8 ft | 16 kts | 242° |
| 2026-05-01 13:24 | 38.87110 | 1.36434 | 7 ft | 15 kts | 242° |
| 2026-05-01 13:25 | 38.87015 | 1.36206 | 7 ft | 14 kts | 242° |
| 2026-05-01 13:25 | 38.86971 | 1.36100 | 7 ft | 13 kts | 242° |
| 2026-05-01 13:25 | 38.86929 | 1.35998 | 8 ft | 13 kts | 242° |
| 2026-05-01 13:25 | 38.86888 | 1.35898 | 7 ft | 12 kts | 242° |
| 2026-05-01 13:26 | 38.86835 | 1.35819 | 7 ft | 12 kts | 186° |
| 2026-05-01 13:26 | 38.86759 | 1.35862 | 5 ft | 12 kts | 151° |
| 2026-05-01 13:26 | 38.86713 | 1.35928 | 5 ft | 10 kts | 81° |
| 2026-05-01 13:26 | 38.86726 | 1.35963 | 6 ft | 0 kts | 61° |
| 2026-05-01 13:28 | 38.86758 | 1.36037 | 4 ft | 38 kts | 62° |
| 2026-05-01 13:28 | 38.87011 | 1.36650 | 6 ft | 115 kts | 62° |
| 2026-05-01 13:29 | 38.87993 | 1.39091 | 1054 ft | 157 kts | 66° |
| 2026-05-01 13:29 | 38.88631 | 1.41998 | 2360 ft | 188 kts | 76° |
| 2026-05-01 13:30 | 38.89932 | 1.49190 | 4782 ft | 224 kts | 75° |
| 2026-05-01 13:31 | 38.90657 | 1.53147 | 6329 ft | 229 kts | 75° |
| 2026-05-01 13:31 | 38.92074 | 1.55756 | 6948 ft | 258 kts | 40° |
| 2026-05-01 13:32 | 38.93343 | 1.57164 | 7253 ft | 278 kts | 40° |
| 2026-05-01 13:33 | 38.97803 | 1.62228 | 9639 ft | 290 kts | 41° |
| 2026-05-01 13:33 | 38.98548 | 1.63086 | 10048 ft | 292 kts | 40° |
| 2026-05-01 13:34 | 39.02079 | 1.65557 | 11503 ft | 296 kts | 7° |
| 2026-05-01 13:34 | 39.06228 | 1.66090 | 12988 ft | 304 kts | 4° |
| 2026-05-01 13:35 | 39.10485 | 1.66087 | 14327 ft | 314 kts | 340° |
| 2026-05-01 13:35 | 39.12579 | 1.65017 | 14498 ft | 336 kts | 335° |
| 2026-05-01 13:35 | 39.17073 | 1.62441 | 14963 ft | 371 kts | 335° |
| 2026-05-01 13:36 | 39.19486 | 1.61051 | 15521 ft | 377 kts | 335° |
| 2026-05-01 13:36 | 39.21862 | 1.59694 | 16172 ft | 380 kts | 335° |
| 2026-05-01 13:36 | 39.26766 | 1.56921 | 17404 ft | 389 kts | 335° |
| 2026-05-01 13:37 | 39.29268 | 1.55513 | 18009 ft | 393 kts | 335° |
| 2026-05-01 13:37 | 39.31791 | 1.54095 | 18592 ft | 398 kts | 335° |
| 2026-05-01 13:37 | 39.34341 | 1.52661 | 19128 ft | 401 kts | 335° |
| 2026-05-01 13:37 | 39.36918 | 1.51213 | 19698 ft | 403 kts | 335° |
| 2026-05-01 13:38 | 39.42104 | 1.48290 | 20755 ft | 410 kts | 335° |
| 2026-05-01 13:38 | 39.44729 | 1.46809 | 21267 ft | 413 kts | 335° |
| 2026-05-01 13:38 | 39.47349 | 1.45330 | 21768 ft | 417 kts | 335° |
| 2026-05-01 13:39 | 39.50021 | 1.43820 | 22259 ft | 420 kts | 334° |
| 2026-05-01 13:39 | 39.52711 | 1.42299 | 22751 ft | 423 kts | 334° |
| 2026-05-01 13:39 | 39.55423 | 1.40764 | 23232 ft | 426 kts | 334° |
| 2026-05-01 13:39 | 39.58151 | 1.39220 | 23700 ft | 430 kts | 335° |
| 2026-05-01 13:40 | 39.60964 | 1.37823 | 24014 ft | 436 kts | 346° |
| 2026-05-01 13:40 | 39.63984 | 1.37306 | 24436 ft | 439 kts | 354° |
| 2026-05-01 13:40 | 39.67022 | 1.36961 | 24887 ft | 440 kts | 354° |
| 2026-05-01 13:40 | 39.70049 | 1.36623 | 25272 ft | 442 kts | 354° |
| 2026-05-01 13:41 | 39.73124 | 1.36265 | 25642 ft | 445 kts | 354° |
| 2026-05-01 13:41 | 39.76214 | 1.35887 | 26022 ft | 447 kts | 353° |
| 2026-05-01 13:41 | 39.79328 | 1.35491 | 26400 ft | 449 kts | 353° |
| 2026-05-01 13:41 | 39.82449 | 1.35083 | 26724 ft | 453 kts | 353° |
| 2026-05-01 13:42 | 39.85598 | 1.34666 | 27042 ft | 456 kts | 353° |
| 2026-05-01 13:42 | 39.88756 | 1.34246 | 27426 ft | 457 kts | 353° |
| 2026-05-01 13:42 | 39.91888 | 1.33829 | 27792 ft | 459 kts | 353° |
| 2026-05-01 13:42 | 39.95070 | 1.33405 | 28133 ft | 461 kts | 353° |
| 2026-05-01 13:43 | 39.98269 | 1.32979 | 28453 ft | 463 kts | 353° |
| 2026-05-01 13:43 | 40.01485 | 1.32550 | 28768 ft | 465 kts | 353° |
| 2026-05-01 13:43 | 40.04714 | 1.32120 | 29126 ft | 466 kts | 352° |
| 2026-05-01 13:43 | 40.07952 | 1.31689 | 29486 ft | 468 kts | 352° |
| 2026-05-01 13:44 | 40.11196 | 1.31256 | 29780 ft | 470 kts | 352° |
| 2026-05-01 13:44 | 40.14466 | 1.30819 | 30065 ft | 472 kts | 352° |
| 2026-05-01 13:44 | 40.17701 | 1.30387 | 30325 ft | 474 kts | 352° |
| 2026-05-01 13:44 | 40.20979 | 1.29948 | 30665 ft | 473 kts | 352° |
| 2026-05-01 13:45 | 40.24253 | 1.29510 | 31066 ft | 471 kts | 352° |
| 2026-05-01 13:45 | 40.27512 | 1.29074 | 31375 ft | 471 kts | 352° |
| 2026-05-01 13:45 | 40.30779 | 1.28635 | 31608 ft | 473 kts | 352° |
| 2026-05-01 13:45 | 40.34046 | 1.28196 | 31930 ft | 472 kts | 352° |
| 2026-05-01 13:46 | 40.37313 | 1.27757 | 32312 ft | 470 kts | 352° |
| 2026-05-01 13:46 | 40.40558 | 1.27319 | 32690 ft | 468 kts | 352° |
| 2026-05-01 13:46 | 40.43801 | 1.26881 | 33009 ft | 467 kts | 352° |
| 2026-05-01 13:46 | 40.47038 | 1.26443 | 33318 ft | 467 kts | 352° |
| 2026-05-01 13:47 | 40.50237 | 1.26009 | 33548 ft | 468 kts | 352° |
| 2026-05-01 13:47 | 40.53480 | 1.25569 | 33858 ft | 467 kts | 352° |
| 2026-05-01 13:47 | 40.56710 | 1.25131 | 34203 ft | 466 kts | 352° |
| 2026-05-01 13:47 | 40.59924 | 1.24695 | 34510 ft | 464 kts | 352° |
| 2026-05-01 13:48 | 40.63138 | 1.24258 | 34767 ft | 463 kts | 352° |
| 2026-05-01 13:48 | 40.66358 | 1.23819 | 35008 ft | 463 kts | 352° |
| 2026-05-01 13:48 | 40.69571 | 1.23528 | 35254 ft | 464 kts | 359° |
| 2026-05-01 13:48 | 40.72796 | 1.23845 | 35521 ft | 465 kts | 7° |
| 2026-05-01 13:49 | 40.75954 | 1.24801 | 35777 ft | 465 kts | 13° |
| 2026-05-01 13:49 | 40.79071 | 1.25940 | 36003 ft | 465 kts | 14° |
| 2026-05-01 13:49 | 40.82184 | 1.27112 | 36200 ft | 466 kts | 14° |
| 2026-05-01 13:50 | 40.88421 | 1.29441 | 36227 ft | 469 kts | 14° |
| 2026-05-01 13:50 | 40.94704 | 1.31733 | 36211 ft | 464 kts | 14° |
| 2026-05-01 13:51 | 41.00910 | 1.33969 | 36228 ft | 461 kts | 14° |
| 2026-05-01 13:51 | 41.07098 | 1.36198 | 36230 ft | 460 kts | 14° |
| 2026-05-01 13:52 | 41.13274 | 1.38428 | 36229 ft | 460 kts | 14° |
| 2026-05-01 13:52 | 41.19414 | 1.40651 | 36249 ft | 460 kts | 14° |
| 2026-05-01 13:53 | 41.25626 | 1.42906 | 36224 ft | 463 kts | 14° |
| 2026-05-01 13:53 | 41.34968 | 1.46305 | 36233 ft | 466 kts | 13° |
| 2026-05-01 13:54 | 41.41232 | 1.48589 | 36219 ft | 467 kts | 14° |
| 2026-05-01 13:54 | 41.47521 | 1.50889 | 36217 ft | 468 kts | 13° |
| 2026-05-01 13:55 | 41.53799 | 1.53187 | 36210 ft | 469 kts | 13° |
| 2026-05-01 13:55 | 41.60091 | 1.55496 | 36219 ft | 469 kts | 14° |
| 2026-05-01 13:56 | 41.61687 | 1.56082 | 36213 ft | 469 kts | 13° |
| 2026-05-01 13:56 | 41.67830 | 1.58343 | 36215 ft | 469 kts | 14° |
| 2026-05-01 13:57 | 41.73052 | 1.60267 | 36208 ft | 468 kts | 14° |
| 2026-05-01 13:57 | 41.77319 | 1.61360 | 36218 ft | 465 kts | 2° |
| 2026-05-01 13:57 | 41.80540 | 1.61430 | 36197 ft | 462 kts | 353° |
| 2026-05-01 13:58 | 41.86911 | 1.60416 | 36200 ft | 460 kts | 350° |
| 2026-05-01 13:58 | 41.93247 | 1.59318 | 36197 ft | 459 kts | 351° |
| 2026-05-01 13:59 | 41.98003 | 1.58533 | 36200 ft | 458 kts | 351° |
| 2026-05-01 13:59 | 42.01963 | 1.57901 | 36206 ft | 457 kts | 351° |
| 2026-05-01 14:00 | 42.08282 | 1.56903 | 36197 ft | 457 kts | 351° |
| 2026-05-01 14:00 | 42.14593 | 1.55905 | 36211 ft | 456 kts | 351° |
| 2026-05-01 14:01 | 42.20859 | 1.54887 | 36267 ft | 455 kts | 351° |
| 2026-05-01 14:01 | 42.27161 | 1.53854 | 36240 ft | 456 kts | 351° |
| 2026-05-01 14:02 | 42.33460 | 1.52822 | 36241 ft | 455 kts | 351° |
| 2026-05-01 14:02 | 42.39757 | 1.51789 | 36242 ft | 455 kts | 351° |
| 2026-05-01 14:03 | 42.46060 | 1.50755 | 36239 ft | 455 kts | 351° |
| 2026-05-01 14:03 | 42.52307 | 1.49728 | 36231 ft | 455 kts | 351° |
| 2026-05-01 14:04 | 42.58611 | 1.48693 | 36240 ft | 455 kts | 351° |
| 2026-05-01 14:04 | 42.63837 | 1.47828 | 36230 ft | 455 kts | 351° |
| 2026-05-01 14:05 | 42.71199 | 1.46608 | 36223 ft | 455 kts | 351° |
| 2026-05-01 14:05 | 42.76427 | 1.45740 | 36212 ft | 455 kts | 351° |
| 2026-05-01 14:06 | 42.83726 | 1.44527 | 36210 ft | 454 kts | 351° |
| 2026-05-01 14:06 | 42.88992 | 1.43652 | 36205 ft | 454 kts | 351° |
| 2026-05-01 14:07 | 42.95224 | 1.42613 | 36190 ft | 454 kts | 350° |
| 2026-05-01 14:08 | 43.04643 | 1.41040 | 36203 ft | 454 kts | 351° |
| 2026-05-01 14:08 | 43.10919 | 1.39986 | 36188 ft | 454 kts | 351° |
| 2026-05-01 14:09 | 43.17151 | 1.38938 | 36189 ft | 455 kts | 351° |
| 2026-05-01 14:09 | 43.23434 | 1.37881 | 36187 ft | 455 kts | 351° |
| 2026-05-01 14:10 | 43.29725 | 1.36819 | 36190 ft | 456 kts | 351° |
| 2026-05-01 14:10 | 43.36023 | 1.35755 | 36188 ft | 456 kts | 351° |
| 2026-05-01 14:11 | 43.42329 | 1.34686 | 36193 ft | 457 kts | 350° |
| 2026-05-01 14:11 | 43.51815 | 1.33077 | 36197 ft | 458 kts | 350° |
| 2026-05-01 14:12 | 43.58124 | 1.32001 | 36195 ft | 459 kts | 350° |
| 2026-05-01 14:12 | 43.64472 | 1.30918 | 36217 ft | 460 kts | 351° |
| 2026-05-01 14:13 | 43.70825 | 1.29830 | 36214 ft | 461 kts | 351° |
| 2026-05-01 14:13 | 43.77198 | 1.28738 | 36209 ft | 461 kts | 350° |
| 2026-05-01 14:14 | 43.83568 | 1.27645 | 36212 ft | 461 kts | 351° |
| 2026-05-01 14:14 | 43.89913 | 1.26553 | 36204 ft | 462 kts | 351° |
| 2026-05-01 14:15 | 43.96296 | 1.25453 | 36194 ft | 462 kts | 351° |
| 2026-05-01 14:15 | 44.02685 | 1.24348 | 36200 ft | 462 kts | 351° |
| 2026-05-01 14:16 | 44.09065 | 1.23243 | 36203 ft | 461 kts | 351° |
| 2026-05-01 14:16 | 44.15424 | 1.22139 | 36195 ft | 460 kts | 351° |
| 2026-05-01 14:17 | 44.21736 | 1.21041 | 36197 ft | 460 kts | 351° |
| 2026-05-01 14:17 | 44.28095 | 1.19932 | 36192 ft | 459 kts | 351° |
| 2026-05-01 14:18 | 44.34433 | 1.18825 | 36204 ft | 459 kts | 351° |
| 2026-05-01 14:18 | 44.39705 | 1.17901 | 36199 ft | 459 kts | 351° |
| 2026-05-01 14:19 | 44.47047 | 1.16613 | 36195 ft | 459 kts | 351° |
| 2026-05-01 14:19 | 44.53345 | 1.15505 | 36201 ft | 459 kts | 351° |
| 2026-05-01 14:20 | 44.62870 | 1.13825 | 36208 ft | 460 kts | 351° |
| 2026-05-01 14:21 | 44.69234 | 1.12699 | 36200 ft | 460 kts | 351° |
| 2026-05-01 14:21 | 44.75590 | 1.11573 | 36203 ft | 461 kts | 351° |
| 2026-05-01 14:22 | 44.85042 | 1.09893 | 36207 ft | 461 kts | 351° |
| 2026-05-01 14:22 | 44.91379 | 1.08764 | 36203 ft | 461 kts | 351° |
| 2026-05-01 14:23 | 44.97745 | 1.07626 | 36204 ft | 461 kts | 351° |
| 2026-05-01 14:23 | 45.04126 | 1.06484 | 36204 ft | 462 kts | 351° |
| 2026-05-01 14:24 | 45.10503 | 1.05339 | 36201 ft | 462 kts | 351° |
| 2026-05-01 14:24 | 45.16890 | 1.04191 | 36201 ft | 462 kts | 351° |
| 2026-05-01 14:25 | 45.23223 | 1.03050 | 36204 ft | 461 kts | 351° |
| 2026-05-01 14:25 | 45.29601 | 1.01897 | 36203 ft | 461 kts | 351° |
| 2026-05-01 14:26 | 45.39174 | 1.00607 | 36220 ft | 462 kts | 359° |
| 2026-05-01 14:27 | 45.45607 | 1.00859 | 36207 ft | 463 kts | 0° |
| 2026-05-01 14:27 | 45.52043 | 1.01202 | 36210 ft | 463 kts | 0° |
| 2026-05-01 14:28 | 45.61660 | 1.01572 | 36217 ft | 462 kts | 359° |
| 2026-05-01 14:28 | 45.68105 | 1.01770 | 36215 ft | 462 kts | 359° |
| 2026-05-01 14:29 | 45.74544 | 1.01963 | 36234 ft | 462 kts | 359° |
| 2026-05-01 14:30 | 45.87366 | 1.02354 | 36237 ft | 462 kts | 359° |
| 2026-05-01 14:31 | 45.97010 | 1.02652 | 36244 ft | 462 kts | 359° |
| 2026-05-01 14:31 | 46.03452 | 1.02852 | 36226 ft | 462 kts | 359° |
| 2026-05-01 14:32 | 46.09879 | 1.03052 | 36228 ft | 462 kts | 359° |
| 2026-05-01 14:32 | 46.16262 | 1.03251 | 36220 ft | 461 kts | 359° |
| 2026-05-01 14:33 | 46.22678 | 1.03451 | 36218 ft | 461 kts | 359° |
| 2026-05-01 14:33 | 46.29094 | 1.03651 | 36216 ft | 460 kts | 359° |
| 2026-05-01 14:34 | 46.35493 | 1.03852 | 36213 ft | 460 kts | 359° |
| 2026-05-01 14:34 | 46.41883 | 1.04053 | 36214 ft | 459 kts | 359° |
| 2026-05-01 14:35 | 46.48281 | 1.04255 | 36207 ft | 459 kts | 359° |
| 2026-05-01 14:35 | 46.54666 | 1.04456 | 36207 ft | 459 kts | 359° |
| 2026-05-01 14:36 | 46.61014 | 1.04658 | 36211 ft | 458 kts | 358° |
| 2026-05-01 14:36 | 46.67388 | 1.04860 | 36202 ft | 458 kts | 358° |
| 2026-05-01 14:37 | 46.73771 | 1.05063 | 36203 ft | 458 kts | 358° |
| 2026-05-01 14:37 | 46.80145 | 1.05266 | 36197 ft | 458 kts | 358° |
| 2026-05-01 14:38 | 46.86520 | 1.05470 | 36201 ft | 457 kts | 358° |
| 2026-05-01 14:38 | 46.92885 | 1.05673 | 36205 ft | 457 kts | 358° |
| 2026-05-01 14:39 | 46.99214 | 1.05877 | 36214 ft | 457 kts | 358° |
| 2026-05-01 14:39 | 47.05584 | 1.06081 | 36204 ft | 457 kts | 358° |
| 2026-05-01 14:40 | 47.11954 | 1.06287 | 36211 ft | 457 kts | 358° |
| 2026-05-01 14:40 | 47.18322 | 1.06493 | 36225 ft | 457 kts | 358° |
| 2026-05-01 14:41 | 47.24674 | 1.06699 | 36203 ft | 457 kts | 358° |
| 2026-05-01 14:41 | 47.31030 | 1.06905 | 36213 ft | 456 kts | 358° |
| 2026-05-01 14:42 | 47.37332 | 1.07111 | 36202 ft | 456 kts | 358° |
| 2026-05-01 14:42 | 47.43676 | 1.07318 | 36200 ft | 455 kts | 358° |
| 2026-05-01 14:43 | 47.50010 | 1.07526 | 36207 ft | 454 kts | 358° |
| 2026-05-01 14:43 | 47.56328 | 1.07733 | 36199 ft | 453 kts | 358° |
| 2026-05-01 14:44 | 47.62590 | 1.07939 | 36199 ft | 452 kts | 358° |
| 2026-05-01 14:44 | 47.72024 | 1.08250 | 36194 ft | 451 kts | 358° |
| 2026-05-01 14:45 | 47.81406 | 1.08560 | 36210 ft | 451 kts | 359° |
| 2026-05-01 14:46 | 47.87692 | 1.08768 | 36191 ft | 451 kts | 358° |
| 2026-05-01 14:46 | 47.97112 | 1.09083 | 36185 ft | 451 kts | 359° |
| 2026-05-01 14:47 | 48.03401 | 1.09292 | 36187 ft | 452 kts | 359° |
| 2026-05-01 14:48 | 48.12818 | 1.09608 | 36189 ft | 453 kts | 359° |
| 2026-05-01 14:48 | 48.22281 | 1.10349 | 36194 ft | 457 kts | 10° |
| 2026-05-01 14:49 | 48.34412 | 1.16431 | 36200 ft | 461 kts | 18° |
| 2026-05-01 14:50 | 48.46560 | 1.22707 | 36198 ft | 464 kts | 18° |
| 2026-05-01 14:51 | 48.55748 | 1.27430 | 36198 ft | 465 kts | 18° |
| 2026-05-01 14:52 | 48.64941 | 1.32065 | 36198 ft | 466 kts | 19° |
| 2026-05-01 14:53 | 48.74183 | 1.36725 | 36202 ft | 467 kts | 19° |
| 2026-05-01 14:53 | 48.80348 | 1.39853 | 36203 ft | 467 kts | 19° |
| 2026-05-01 14:54 | 48.86526 | 1.42996 | 36190 ft | 468 kts | 19° |
| 2026-05-01 14:54 | 48.92695 | 1.46142 | 36193 ft | 467 kts | 19° |
| 2026-05-01 14:55 | 48.98897 | 1.49091 | 36184 ft | 468 kts | 12° |
| 2026-05-01 14:55 | 49.05324 | 1.50580 | 36191 ft | 467 kts | 8° |
| 2026-05-01 14:56 | 49.11772 | 1.51938 | 36187 ft | 467 kts | 9° |
| 2026-05-01 14:56 | 49.18157 | 1.53422 | 36200 ft | 467 kts | 10° |
| 2026-05-01 14:57 | 49.23493 | 1.54982 | 36189 ft | 465 kts | 20° |
| 2026-05-01 14:57 | 49.29944 | 1.60610 | 36197 ft | 458 kts | 45° |
| 2026-05-01 14:57 | 49.31515 | 1.62870 | 36218 ft | 457 kts | 46° |
| 2026-05-01 14:58 | 49.36031 | 1.69656 | 36207 ft | 458 kts | 47° |
| 2026-05-01 14:58 | 49.40614 | 1.76485 | 36208 ft | 459 kts | 46° |
| 2026-05-01 14:59 | 49.45238 | 1.83281 | 36199 ft | 460 kts | 46° |
| 2026-05-01 14:59 | 49.49866 | 1.90084 | 36191 ft | 460 kts | 46° |
| 2026-05-01 15:00 | 49.57365 | 1.99410 | 36185 ft | 464 kts | 38° |
| 2026-05-01 15:01 | 49.62597 | 2.05148 | 36194 ft | 464 kts | 38° |
| 2026-05-01 15:01 | 49.67828 | 2.10974 | 36193 ft | 463 kts | 39° |
| 2026-05-01 15:02 | 49.73024 | 2.16859 | 36184 ft | 463 kts | 39° |
| 2026-05-01 15:02 | 49.78211 | 2.22780 | 36182 ft | 462 kts | 39° |
| 2026-05-01 15:03 | 49.83373 | 2.28689 | 36171 ft | 461 kts | 39° |
| 2026-05-01 15:03 | 49.88481 | 2.34549 | 36188 ft | 460 kts | 39° |
| 2026-05-01 15:04 | 49.93621 | 2.40461 | 36208 ft | 460 kts | 39° |
| 2026-05-01 15:04 | 49.98725 | 2.46345 | 36205 ft | 459 kts | 39° |
| 2026-05-01 15:05 | 50.03855 | 2.52277 | 36210 ft | 459 kts | 39° |
| 2026-05-01 15:05 | 50.08973 | 2.58211 | 36216 ft | 459 kts | 39° |
| 2026-05-01 15:06 | 50.14093 | 2.64163 | 36202 ft | 459 kts | 39° |
| 2026-05-01 15:06 | 50.19209 | 2.70127 | 36200 ft | 459 kts | 39° |
| 2026-05-01 15:07 | 50.24328 | 2.76111 | 36178 ft | 459 kts | 39° |
| 2026-05-01 15:07 | 50.29412 | 2.82070 | 36198 ft | 460 kts | 39° |
| 2026-05-01 15:08 | 50.34533 | 2.88091 | 36194 ft | 460 kts | 39° |
| 2026-05-01 15:08 | 50.39654 | 2.94126 | 36189 ft | 461 kts | 39° |
| 2026-05-01 15:09 | 50.44997 | 2.99710 | 36201 ft | 463 kts | 30° |
| 2026-05-01 15:09 | 50.50677 | 3.04374 | 36185 ft | 464 kts | 29° |
| 2026-05-01 15:10 | 50.56395 | 3.09068 | 36183 ft | 464 kts | 30° |
| 2026-05-01 15:10 | 50.62142 | 3.13925 | 35129 ft | 469 kts | 30° |
| 2026-05-01 15:10 | 50.65017 | 3.16377 | 34508 ft | 469 kts | 30° |
| 2026-05-01 15:11 | 50.67881 | 3.18821 | 33830 ft | 469 kts | 30° |
| 2026-05-01 15:11 | 50.73579 | 3.23660 | 32822 ft | 460 kts | 30° |
| 2026-05-01 15:11 | 50.76402 | 3.26013 | 32362 ft | 456 kts | 29° |
| 2026-05-01 15:12 | 50.79204 | 3.28340 | 31880 ft | 452 kts | 29° |
| 2026-05-01 15:12 | 50.84676 | 3.32894 | 30996 ft | 443 kts | 29° |
| 2026-05-01 15:12 | 50.87392 | 3.35165 | 30560 ft | 439 kts | 29° |
| 2026-05-01 15:13 | 50.95393 | 3.41884 | 29131 ft | 427 kts | 30° |
| 2026-05-01 15:14 | 51.00589 | 3.46264 | 28223 ft | 419 kts | 30° |
| 2026-05-01 15:14 | 51.03160 | 3.48435 | 27763 ft | 415 kts | 30° |
| 2026-05-01 15:14 | 51.08183 | 3.52685 | 26891 ft | 408 kts | 30° |
| 2026-05-01 15:15 | 51.13160 | 3.56907 | 26027 ft | 402 kts | 30° |
| 2026-05-01 15:15 | 51.18073 | 3.61085 | 25169 ft | 397 kts | 30° |
| 2026-05-01 15:16 | 51.22957 | 3.65108 | 24305 ft | 395 kts | 22° |
| 2026-05-01 15:16 | 51.28361 | 3.65862 | 23631 ft | 394 kts | 359° |
| 2026-05-01 15:17 | 51.33918 | 3.65580 | 22919 ft | 403 kts | 359° |
| 2026-05-01 15:18 | 51.42225 | 3.65298 | 21905 ft | 391 kts | 5° |
| 2026-05-01 15:18 | 51.44882 | 3.66093 | 21546 ft | 385 kts | 18° |
| 2026-05-01 15:19 | 51.52201 | 3.71224 | 20590 ft | 387 kts | 26° |
| 2026-05-01 15:19 | 51.55527 | 3.73693 | 20146 ft | 387 kts | 26° |
| 2026-05-01 15:19 | 51.57959 | 3.75489 | 19830 ft | 387 kts | 26° |
| 2026-05-01 15:20 | 51.62875 | 3.79108 | 19173 ft | 385 kts | 26° |
| 2026-05-01 15:20 | 51.65308 | 3.80897 | 18852 ft | 383 kts | 26° |
| 2026-05-01 15:20 | 51.67730 | 3.82680 | 18532 ft | 382 kts | 26° |
| 2026-05-01 15:21 | 51.70140 | 3.84455 | 18182 ft | 379 kts | 26° |
| 2026-05-01 15:21 | 51.72505 | 3.86199 | 17841 ft | 377 kts | 26° |
| 2026-05-01 15:21 | 51.74883 | 3.87955 | 17488 ft | 375 kts | 26° |
| 2026-05-01 15:21 | 51.77247 | 3.89702 | 17178 ft | 372 kts | 26° |
| 2026-05-01 15:22 | 51.81915 | 3.93159 | 16571 ft | 367 kts | 26° |
| 2026-05-01 15:22 | 51.84231 | 3.94878 | 16275 ft | 365 kts | 26° |
| 2026-05-01 15:22 | 51.86540 | 3.96593 | 15962 ft | 364 kts | 26° |
| 2026-05-01 15:23 | 51.88835 | 3.98299 | 15659 ft | 362 kts | 26° |
| 2026-05-01 15:23 | 51.91116 | 3.99998 | 15359 ft | 361 kts | 27° |
| 2026-05-01 15:23 | 51.93402 | 4.01701 | 15055 ft | 360 kts | 27° |
| 2026-05-01 15:23 | 51.95676 | 4.03399 | 14761 ft | 360 kts | 27° |
| 2026-05-01 15:24 | 51.97953 | 4.05100 | 14456 ft | 360 kts | 27° |
| 2026-05-01 15:24 | 52.00226 | 4.06799 | 14157 ft | 359 kts | 27° |
| 2026-05-01 15:24 | 52.02490 | 4.08494 | 13840 ft | 359 kts | 27° |
| 2026-05-01 15:24 | 52.04759 | 4.10194 | 13509 ft | 358 kts | 27° |
| 2026-05-01 15:25 | 52.06981 | 4.11862 | 13201 ft | 356 kts | 27° |
| 2026-05-01 15:25 | 52.09230 | 4.13561 | 12897 ft | 355 kts | 27° |
| 2026-05-01 15:25 | 52.11463 | 4.15258 | 12590 ft | 353 kts | 27° |
| 2026-05-01 15:25 | 52.13681 | 4.16945 | 12305 ft | 352 kts | 27° |
| 2026-05-01 15:26 | 52.15897 | 4.18633 | 12010 ft | 350 kts | 27° |
| 2026-05-01 15:26 | 52.18101 | 4.20313 | 11717 ft | 349 kts | 27° |
| 2026-05-01 15:26 | 52.20298 | 4.21989 | 11420 ft | 348 kts | 27° |
| 2026-05-01 15:26 | 52.22487 | 4.23661 | 11131 ft | 347 kts | 27° |
| 2026-05-01 15:27 | 52.24658 | 4.25319 | 10843 ft | 342 kts | 26° |
| 2026-05-01 15:27 | 52.26799 | 4.26956 | 10547 ft | 337 kts | 26° |
| 2026-05-01 15:27 | 52.28867 | 4.28539 | 10265 ft | 326 kts | 26° |
| 2026-05-01 15:28 | 52.32793 | 4.31540 | 9722 ft | 307 kts | 26° |
| 2026-05-01 15:28 | 52.34724 | 4.33020 | 9394 ft | 306 kts | 26° |
| 2026-05-01 15:28 | 52.36657 | 4.34501 | 9062 ft | 305 kts | 26° |
| 2026-05-01 15:29 | 52.40476 | 4.37430 | 8469 ft | 301 kts | 26° |
| 2026-05-01 15:29 | 52.42374 | 4.38888 | 8168 ft | 299 kts | 26° |
| 2026-05-01 15:29 | 52.46096 | 4.41770 | 7592 ft | 296 kts | 26° |
| 2026-05-01 15:30 | 52.49790 | 4.44639 | 7072 ft | 289 kts | 26° |
| 2026-05-01 15:31 | 52.56376 | 4.49763 | 6378 ft | 244 kts | 26° |
| 2026-05-01 15:31 | 52.58302 | 4.53527 | 6065 ft | 203 kts | 81° |
| 2026-05-01 15:32 | 52.58455 | 4.57770 | 5649 ft | 180 kts | 93° |
| 2026-05-01 15:32 | 52.58588 | 4.61970 | 4841 ft | 187 kts | 92° |
| 2026-05-01 15:33 | 52.58785 | 4.68595 | 3598 ft | 200 kts | 92° |
| 2026-05-01 15:34 | 52.57884 | 4.74271 | 2815 ft | 151 kts | 172° |